Time,TemperatureF,DewpointF,PressureIn,WindDirection,WindDirectionDegrees,WindSpeedMPH,WindSpeedGustMPH,Humidity,HourlyPrecipIn,Conditions,Clouds,dailyrainin,SoftwareType,DateUTC
2013-01-15 00:00:00,16.6,13.9,30.43,WNW,284,0.0,0.0,89,0.00,,---,0.00,VWS V14.01,2013-01-15 05:00:00,
2013-01-15 00:01:00,16.6,13.9,30.43,WNW,284,0.0,0.0,89,0.00,,---,0.00,VWS V14.01,2013-01-15 05:01:00,
2013-01-15 00:03:00,16.6,13.9,30.42,WNW,284,0.0,0.0,89,0.00,,---,0.00,VWS V14.01,2013-01-15 05:03:00,
2013-01-15 00:08:00,16.5,13.8,30.42,WNW,284,0.0,0.0,89,0.00,,---,0.00,VWS V14.01,2013-01-15 05:08:00,
2013-01-15 00:13:00,16.4,13.7,30.42,WNW,284,0.0,0.0,89,0.00,,---,0.00,VWS V14.01,2013-01-15 05:13:00,
2013-01-15 00:18:00,16.3,13.6,30.42,WNW,284,0.0,0.0,89,0.00,,---,0.00,VWS V14.01,2013-01-15 05:18:00,
2013-01-15 00:23:00,16.2,13.5,30.42,WNW,284,0.0,0.0,89,0.00,,---,0.00,VWS V14.01,2013-01-15 05:23:00,
2013-01-15 00:28:00,16.1,13.4,30.42,WNW,284,0.0,0.0,89,0.00,,---,0.00,VWS V14.01,2013-01-15 05:28:00,
2013-01-15 00:33:00,16.0,13.3,30.43,WNW,284,0.0,0.0,89,0.00,,---,0.00,VWS V14.01,2013-01-15 05:33:00,
2013-01-15 00:38:00,16.1,13.7,30.43,WNW,284,0.0,0.0,90,0.00,,---,0.00,VWS V14.01,2013-01-15 05:38:00,
2013-01-15 00:43:00,16.1,13.7,30.43,WNW,284,0.0,0.0,90,0.00,,---,0.00,VWS V14.01,2013-01-15 05:43:00,
2013-01-15 00:48:00,16.2,13.8,30.43,WNW,284,0.0,0.0,90,0.00,,---,0.00,VWS V14.01,2013-01-15 05:48:00,
2013-01-15 00:53:00,16.3,14.1,30.43,WNW,284,0.0,0.0,91,0.00,,---,0.00,VWS V14.01,2013-01-15 05:53:00,
2013-01-15 00:58:00,16.4,14.2,30.43,WNW,284,0.0,0.0,91,0.00,,---,0.00,VWS V14.01,2013-01-15 05:58:00,
2013-01-15 01:03:00,16.6,14.4,30.43,WNW,284,0.0,0.0,91,0.00,,---,0.00,VWS V14.01,2013-01-15 06:03:00,
2013-01-15 01:08:00,16.8,14.6,30.43,WNW,284,0.0,0.0,91,0.00,,---,0.00,VWS V14.01,2013-01-15 06:08:00,
2013-01-15 01:13:00,16.9,14.7,30.43,WNW,284,0.0,0.0,91,0.00,,---,0.00,VWS V14.01,2013-01-15 06:13:00,
2013-01-15 01:18:00,17.0,14.8,30.43,WNW,284,0.0,0.0,91,0.00,,---,0.00,VWS V14.01,2013-01-15 06:18:00,
2013-01-15 01:23:00,17.0,14.8,30.43,WNW,284,0.0,0.0,91,0.00,,---,0.00,VWS V14.01,2013-01-15 06:23:00,
2013-01-15 01:28:00,17.0,14.8,30.43,WNW,284,0.0,0.0,91,0.00,,---,0.00,VWS V14.01,2013-01-15 06:28:00,
2013-01-15 01:33:00,16.9,14.7,30.43,WNW,284,0.0,0.0,91,0.00,,---,0.00,VWS V14.01,2013-01-15 06:33:00,
2013-01-15 01:38:00,16.9,14.5,30.43,WNW,284,0.0,0.0,90,0.00,,---,0.00,VWS V14.01,2013-01-15 06:38:00,
2013-01-15 01:43:00,16.9,14.5,30.43,WNW,284,0.0,0.0,90,0.00,,---,0.00,VWS V14.01,2013-01-15 06:43:00,
2013-01-15 01:48:00,17.0,14.8,30.43,WNW,284,0.0,0.0,91,0.00,,---,0.00,VWS V14.01,2013-01-15 06:48:00,
2013-01-15 01:53:00,17.1,14.9,30.43,WNW,284,0.0,0.0,91,0.00,,---,0.00,VWS V14.01,2013-01-15 06:53:00,
2013-01-15 01:58:00,17.3,15.1,30.43,WNW,284,0.0,0.0,91,0.00,,---,0.00,VWS V14.01,2013-01-15 06:58:00,
2013-01-15 02:03:00,17.5,15.3,30.43,WNW,284,0.0,0.0,91,0.00,,---,0.00,VWS V14.01,2013-01-15 07:03:00,
2013-01-15 02:08:00,17.6,15.4,30.43,WNW,284,0.0,0.0,91,0.00,,---,0.00,VWS V14.01,2013-01-15 07:08:00,
2013-01-15 02:13:00,17.9,15.7,30.43,WNW,284,1.0,4.0,91,0.00,,---,0.00,VWS V14.01,2013-01-15 07:13:00,
2013-01-15 02:18:00,18.2,16.0,30.43,WNW,284,0.0,2.0,91,0.00,,---,0.00,VWS V14.01,2013-01-15 07:18:00,
2013-01-15 02:23:00,18.6,16.4,30.43,WNW,284,0.0,3.0,91,0.00,,---,0.00,VWS V14.01,2013-01-15 07:23:00,
2013-01-15 02:28:00,19.1,17.2,30.43,WNW,284,0.0,1.0,92,0.00,,---,0.00,VWS V14.01,2013-01-15 07:28:00,
2013-01-15 02:33:00,19.4,17.2,30.43,WNW,284,0.0,2.0,91,0.00,,---,0.00,VWS V14.01,2013-01-15 07:33:00,
2013-01-15 02:38:00,19.7,17.5,30.43,WNW,284,0.0,0.0,91,0.00,,---,0.00,VWS V14.01,2013-01-15 07:38:00,
2013-01-15 02:43:00,19.9,17.7,30.43,WNW,284,0.0,0.0,91,0.00,,---,0.00,VWS V14.01,2013-01-15 07:43:00,
2013-01-15 02:48:00,20.1,17.9,30.43,WNW,284,0.0,0.0,91,0.00,,---,0.00,VWS V14.01,2013-01-15 07:48:00,
2013-01-15 02:53:00,20.2,18.0,30.43,WNW,284,2.0,2.0,91,0.00,,---,0.00,VWS V14.01,2013-01-15 07:53:00,
2013-01-15 02:58:00,20.5,18.3,30.43,WNW,284,2.0,3.0,91,0.00,,---,0.00,VWS V14.01,2013-01-15 07:58:00,
2013-01-15 03:03:00,20.7,18.2,30.43,WNW,284,1.0,3.0,90,0.00,,---,0.00,VWS V14.01,2013-01-15 08:03:00,
2013-01-15 03:08:00,20.9,18.4,30.43,WNW,284,1.0,3.0,90,0.00,,---,0.00,VWS V14.01,2013-01-15 08:08:00,
2013-01-15 03:13:00,21.0,18.3,30.43,WNW,284,0.0,3.0,89,0.00,,---,0.00,VWS V14.01,2013-01-15 08:13:00,
2013-01-15 03:18:00,21.0,18.3,30.43,WNW,284,0.0,3.0,89,0.00,,---,0.00,VWS V14.01,2013-01-15 08:18:00,
2013-01-15 03:23:00,21.0,18.0,30.43,WNW,284,0.0,0.0,88,0.00,,---,0.00,VWS V14.01,2013-01-15 08:23:00,
2013-01-15 03:28:00,20.9,17.9,30.43,WNW,284,0.0,0.0,88,0.00,,---,0.00,VWS V14.01,2013-01-15 08:28:00,
2013-01-15 03:33:00,20.8,17.8,30.43,WNW,284,0.0,3.0,88,0.00,,---,0.00,VWS V14.01,2013-01-15 08:33:00,
2013-01-15 03:38:00,20.7,17.5,30.43,WNW,284,0.0,2.0,87,0.00,,---,0.00,VWS V14.01,2013-01-15 08:38:00,
2013-01-15 03:43:00,20.5,17.2,30.43,WNW,284,0.0,1.0,87,0.00,,---,0.00,VWS V14.01,2013-01-15 08:43:00,
2013-01-15 03:48:00,20.3,17.1,30.42,WNW,284,0.0,3.0,87,0.00,,---,0.00,VWS V14.01,2013-01-15 08:48:00,
2013-01-15 03:53:00,20.1,16.9,30.42,WNW,284,0.0,0.0,87,0.00,,---,0.00,VWS V14.01,2013-01-15 08:53:00,
2013-01-15 03:58:00,20.0,16.8,30.42,WNW,284,0.0,0.0,87,0.00,,---,0.00,VWS V14.01,2013-01-15 08:58:00,
2013-01-15 04:03:00,19.8,16.6,30.42,WNW,284,0.0,0.0,87,0.00,,---,0.00,VWS V14.01,2013-01-15 09:03:00,
2013-01-15 04:08:00,19.6,16.1,30.42,WNW,284,0.0,0.0,86,0.00,,---,0.00,VWS V14.01,2013-01-15 09:08:00,
2013-01-15 04:13:00,19.5,16.0,30.42,WNW,284,0.0,0.0,86,0.00,,---,0.00,VWS V14.01,2013-01-15 09:13:00,
2013-01-15 04:18:00,19.3,15.8,30.43,WNW,284,0.0,0.0,86,0.00,,---,0.00,VWS V14.01,2013-01-15 09:18:00,
2013-01-15 04:23:00,19.1,15.9,30.43,WNW,284,0.0,0.0,87,0.00,,---,0.00,VWS V14.01,2013-01-15 09:23:00,
2013-01-15 04:28:00,19.0,15.8,30.43,WNW,284,0.0,0.0,87,0.00,,---,0.00,VWS V14.01,2013-01-15 09:28:00,
2013-01-15 04:33:00,18.9,15.9,30.43,WNW,284,0.0,0.0,88,0.00,,---,0.00,VWS V14.01,2013-01-15 09:33:00,
2013-01-15 04:38:00,18.8,15.8,30.43,WNW,284,0.0,0.0,88,0.00,,---,0.00,VWS V14.01,2013-01-15 09:38:00,
2013-01-15 04:43:00,18.7,15.7,30.42,WNW,284,0.0,0.0,88,0.00,,---,0.00,VWS V14.01,2013-01-15 09:43:00,
2013-01-15 04:48:00,18.6,15.9,30.42,WNW,284,0.0,0.0,89,0.00,,---,0.00,VWS V14.01,2013-01-15 09:48:00,
2013-01-15 04:53:00,18.5,15.8,30.42,WNW,284,0.0,0.0,89,0.00,,---,0.00,VWS V14.01,2013-01-15 09:53:00,
2013-01-15 04:58:00,18.4,15.7,30.42,WNW,284,0.0,1.0,89,0.00,,---,0.00,VWS V14.01,2013-01-15 09:58:00,
2013-01-15 05:03:00,18.3,15.6,30.43,WNW,284,0.0,1.0,89,0.00,,---,0.00,VWS V14.01,2013-01-15 10:03:00,
2013-01-15 05:08:00,18.2,15.5,30.43,WNW,284,0.0,0.0,89,0.00,,---,0.00,VWS V14.01,2013-01-15 10:08:00,
2013-01-15 05:13:00,18.1,15.4,30.42,WNW,284,0.0,0.0,89,0.00,,---,0.00,VWS V14.01,2013-01-15 10:13:00,
2013-01-15 05:18:00,18.0,15.3,30.43,WNW,284,0.0,0.0,89,0.00,,---,0.00,VWS V14.01,2013-01-15 10:18:00,
2013-01-15 05:23:00,17.8,15.1,30.42,WNW,284,1.0,4.0,89,0.00,,---,0.00,VWS V14.01,2013-01-15 10:23:00,
2013-01-15 05:28:00,17.7,15.0,30.42,WNW,284,0.0,2.0,89,0.00,,---,0.00,VWS V14.01,2013-01-15 10:28:00,
2013-01-15 05:33:00,17.6,15.2,30.42,WNW,284,0.0,2.0,90,0.00,,---,0.00,VWS V14.01,2013-01-15 10:33:00,
2013-01-15 05:38:00,17.5,15.1,30.42,WNW,284,0.0,2.0,90,0.00,,---,0.00,VWS V14.01,2013-01-15 10:38:00,
2013-01-15 05:43:00,17.5,15.1,30.42,WNW,284,0.0,1.0,90,0.00,,---,0.00,VWS V14.01,2013-01-15 10:43:00,
2013-01-15 05:48:00,17.6,15.4,30.42,WNW,284,0.0,2.0,91,0.00,,---,0.00,VWS V14.01,2013-01-15 10:48:00,
2013-01-15 05:53:00,17.6,15.4,30.42,WNW,284,0.0,1.0,91,0.00,,---,0.00,VWS V14.01,2013-01-15 10:53:00,
2013-01-15 05:58:00,17.7,15.5,30.42,WNW,284,3.0,3.0,91,0.00,,---,0.00,VWS V14.01,2013-01-15 10:58:00,
2013-01-15 06:03:00,17.9,16.0,30.42,WNW,284,2.0,4.0,92,0.00,,---,0.00,VWS V14.01,2013-01-15 11:03:00,
2013-01-15 06:08:00,18.0,16.1,30.42,WNW,284,0.0,3.0,92,0.00,,---,0.00,VWS V14.01,2013-01-15 11:08:00,
2013-01-15 06:13:00,18.2,16.3,30.42,WNW,284,0.0,2.0,92,0.00,,---,0.00,VWS V14.01,2013-01-15 11:13:00,
2013-01-15 06:18:00,18.3,16.4,30.42,WNW,284,0.0,0.0,92,0.00,,---,0.00,VWS V14.01,2013-01-15 11:18:00,
2013-01-15 06:23:00,18.5,16.6,30.42,WNW,284,0.0,0.0,92,0.00,,---,0.00,VWS V14.01,2013-01-15 11:23:00,
2013-01-15 06:28:00,18.6,16.7,30.42,WNW,284,0.0,2.0,92,0.00,,---,0.00,VWS V14.01,2013-01-15 11:28:00,
2013-01-15 06:33:00,18.8,16.9,30.43,WNW,284,0.0,1.0,92,0.00,,---,0.00,VWS V14.01,2013-01-15 11:33:00,
2013-01-15 06:38:00,18.9,17.0,30.43,WNW,284,0.0,1.0,92,0.00,,---,0.00,VWS V14.01,2013-01-15 11:38:00,
2013-01-15 06:43:00,19.0,17.1,30.43,WNW,284,0.0,0.0,92,0.00,,---,0.00,VWS V14.01,2013-01-15 11:43:00,
2013-01-15 06:48:00,19.1,17.2,30.43,WNW,284,0.0,0.0,92,0.00,,---,0.00,VWS V14.01,2013-01-15 11:48:00,
2013-01-15 06:53:00,19.2,17.3,30.43,WNW,284,0.0,0.0,92,0.00,,---,0.00,VWS V14.01,2013-01-15 11:53:00,
2013-01-15 06:58:00,19.2,17.3,30.42,WNW,284,0.0,0.0,92,0.00,,---,0.00,VWS V14.01,2013-01-15 11:58:00,
2013-01-15 07:03:00,19.3,17.4,30.42,WNW,284,0.0,0.0,92,0.00,,---,0.00,VWS V14.01,2013-01-15 12:03:00,
2013-01-15 07:08:00,19.2,17.0,30.42,WNW,284,0.0,0.0,91,0.00,,---,0.00,VWS V14.01,2013-01-15 12:08:00,
2013-01-15 07:13:00,19.2,17.0,30.42,WNW,284,0.0,0.0,91,0.00,,---,0.00,VWS V14.01,2013-01-15 12:13:00,
2013-01-15 07:18:00,19.1,16.9,30.42,WNW,284,0.0,0.0,91,0.00,,---,0.00,VWS V14.01,2013-01-15 12:18:00,
2013-01-15 07:24:00,19.0,16.8,30.42,WNW,284,0.0,0.0,91,0.00,,---,0.00,VWS V14.01,2013-01-15 12:24:00,
2013-01-15 07:29:00,18.6,16.2,30.42,WNW,284,0.0,0.0,90,0.00,,---,0.00,VWS V14.01,2013-01-15 12:29:00,
2013-01-15 07:34:00,18.1,15.7,30.42,WNW,284,0.0,0.0,90,0.00,,---,0.00,VWS V14.01,2013-01-15 12:34:00,
2013-01-15 07:39:00,17.6,15.2,30.42,WNW,284,0.0,0.0,90,0.00,,---,0.00,VWS V14.01,2013-01-15 12:39:00,
2013-01-15 07:44:00,17.3,14.9,30.42,WNW,284,0.0,0.0,90,0.00,,---,0.00,VWS V14.01,2013-01-15 12:44:00,
2013-01-15 07:49:00,16.7,14.3,30.42,WNW,284,0.0,0.0,90,0.00,,---,0.00,VWS V14.01,2013-01-15 12:49:00,
2013-01-15 07:54:00,16.2,13.8,30.42,WNW,284,0.0,0.0,90,0.00,,---,0.00,VWS V14.01,2013-01-15 12:54:00,
2013-01-15 07:59:00,15.9,13.5,30.42,WNW,284,0.0,0.0,90,0.00,,---,0.00,VWS V14.01,2013-01-15 12:59:00,
2013-01-15 08:04:00,15.6,13.2,30.42,WNW,284,0.0,0.0,90,0.00,,---,0.00,VWS V14.01,2013-01-15 13:04:00,
2013-01-15 08:09:00,15.4,13.0,30.42,WNW,284,0.0,0.0,90,0.00,,---,0.00,VWS V14.01,2013-01-15 13:09:00,
2013-01-15 08:14:00,15.4,13.2,30.43,WNW,284,0.0,0.0,91,0.00,,---,0.00,VWS V14.01,2013-01-15 13:14:00,
2013-01-15 08:19:00,15.4,13.2,30.43,WNW,284,0.0,0.0,91,0.00,,---,0.00,VWS V14.01,2013-01-15 13:19:00,
2013-01-15 08:24:00,15.4,13.2,30.43,WNW,284,0.0,0.0,91,0.00,,---,0.00,VWS V14.01,2013-01-15 13:24:00,
2013-01-15 08:29:00,15.4,13.2,30.43,WNW,284,0.0,0.0,91,0.00,,---,0.00,VWS V14.01,2013-01-15 13:29:00,
2013-01-15 08:34:00,15.5,13.6,30.44,WNW,284,0.0,0.0,92,0.00,,---,0.00,VWS V14.01,2013-01-15 13:34:00,
2013-01-15 08:39:00,15.7,13.8,30.44,WNW,284,0.0,2.0,92,0.00,,---,0.00,VWS V14.01,2013-01-15 13:39:00,
2013-01-15 08:44:00,16.0,14.1,30.44,WNW,284,0.0,1.0,92,0.00,,---,0.00,VWS V14.01,2013-01-15 13:44:00,
2013-01-15 08:49:00,16.3,14.4,30.44,WNW,284,0.0,1.0,92,0.00,,---,0.00,VWS V14.01,2013-01-15 13:49:00,
2013-01-15 08:54:00,16.7,15.0,30.45,WNW,284,1.0,1.0,93,0.00,,---,0.00,VWS V14.01,2013-01-15 13:54:00,
2013-01-15 08:59:00,17.1,15.4,30.45,WNW,284,2.0,4.0,93,0.00,,---,0.00,VWS V14.01,2013-01-15 13:59:00,
2013-01-15 09:04:00,17.6,15.9,30.44,WNW,283,2.0,4.0,93,0.00,,---,0.00,VWS V14.01,2013-01-15 14:04:00,
2013-01-15 09:09:00,18.0,16.3,30.44,WNW,282,1.0,3.0,93,0.00,,---,0.00,VWS V14.01,2013-01-15 14:09:00,
2013-01-15 09:14:00,18.5,16.8,30.45,WNW,282,2.0,3.0,93,0.00,,---,0.00,VWS V14.01,2013-01-15 14:14:00,
2013-01-15 09:19:00,18.9,17.2,30.45,SW,231,1.0,4.0,93,0.00,,---,0.00,VWS V14.01,2013-01-15 14:19:00,
2013-01-15 09:24:00,19.4,17.7,30.45,SW,231,1.0,2.0,93,0.00,,---,0.00,VWS V14.01,2013-01-15 14:24:00,
2013-01-15 09:29:00,19.8,18.1,30.46,SW,231,0.0,0.0,93,0.00,,---,0.00,VWS V14.01,2013-01-15 14:29:00,
2013-01-15 09:34:00,20.3,18.4,30.45,South,172,4.0,5.0,92,0.00,,---,0.00,VWS V14.01,2013-01-15 14:34:00,
2013-01-15 09:39:00,20.8,18.9,30.45,South,169,4.0,4.0,92,0.00,,---,0.00,VWS V14.01,2013-01-15 14:39:00,
2013-01-15 09:44:00,21.2,19.0,30.44,SSE,147,2.0,8.0,91,0.00,,---,0.00,VWS V14.01,2013-01-15 14:44:00,
2013-01-15 09:49:00,21.7,19.5,30.45,SSE,147,2.0,6.0,91,0.00,,---,0.00,VWS V14.01,2013-01-15 14:49:00,
2013-01-15 09:54:00,22.2,19.7,30.44,SSE,147,0.0,6.0,90,0.00,,---,0.00,VWS V14.01,2013-01-15 14:54:00,
2013-01-15 09:59:00,22.6,20.1,30.44,SSE,147,1.0,6.0,90,0.00,,---,0.00,VWS V14.01,2013-01-15 14:59:00,
2013-01-15 10:04:00,23.2,20.5,30.45,SSE,150,7.0,7.0,89,0.00,,---,0.00,VWS V14.01,2013-01-15 15:04:00,
2013-01-15 10:09:00,23.5,20.5,30.44,SSE,150,2.0,7.0,88,0.00,,---,0.00,VWS V14.01,2013-01-15 15:09:00,
2013-01-15 10:14:00,24.0,20.7,30.44,SSE,150,1.0,6.0,87,0.00,,---,0.00,VWS V14.01,2013-01-15 15:14:00,
2013-01-15 10:19:00,24.3,20.7,30.44,SSE,150,2.0,6.0,86,0.00,,---,0.00,VWS V14.01,2013-01-15 15:19:00,
2013-01-15 10:24:00,24.6,20.7,30.44,SSE,150,4.0,7.0,85,0.00,,---,0.00,VWS V14.01,2013-01-15 15:24:00,
2013-01-15 10:29:00,24.9,20.8,30.44,SSE,149,1.0,7.0,84,0.00,,---,0.00,VWS V14.01,2013-01-15 15:29:00,
2013-01-15 10:34:00,25.2,20.8,30.44,SSE,151,4.0,7.0,83,0.00,,---,0.00,VWS V14.01,2013-01-15 15:34:00,
2013-01-15 10:39:00,25.5,21.4,30.45,SSE,151,2.0,6.0,84,0.00,,---,0.00,VWS V14.01,2013-01-15 15:39:00,
2013-01-15 10:44:00,25.8,21.1,30.45,SSE,150,5.0,7.0,82,0.00,,---,0.00,VWS V14.01,2013-01-15 15:44:00,
2013-01-15 10:49:00,26.1,21.4,30.45,SE,137,5.0,7.0,82,0.00,,---,0.00,VWS V14.01,2013-01-15 15:49:00,
2013-01-15 10:54:00,26.3,21.0,30.46,SE,144,5.0,9.0,80,0.00,,---,0.00,VWS V14.01,2013-01-15 15:54:00,
2013-01-15 10:59:00,26.4,20.8,30.46,SE,132,6.0,11.0,79,0.00,,---,0.00,VWS V14.01,2013-01-15 15:59:00,
2013-01-15 11:04:00,26.6,21.3,30.46,SE,144,7.0,10.0,80,0.00,,---,0.00,VWS V14.01,2013-01-15 16:04:00,
2013-01-15 11:09:00,26.7,21.4,30.45,SE,143,6.0,11.0,80,0.00,,---,0.00,VWS V14.01,2013-01-15 16:09:00,
2013-01-15 11:14:00,26.7,20.8,30.45,SE,138,7.0,12.0,78,0.00,,---,0.00,VWS V14.01,2013-01-15 16:14:00,
2013-01-15 11:19:00,26.7,20.8,30.45,SE,142,7.0,12.0,78,0.00,,---,0.00,VWS V14.01,2013-01-15 16:19:00,
2013-01-15 11:24:00,26.8,21.2,30.45,SSE,151,6.0,12.0,79,0.00,,---,0.00,VWS V14.01,2013-01-15 16:24:00,
2013-01-15 11:29:00,27.0,21.4,30.44,ESE,123,4.0,9.0,79,0.00,,---,0.00,VWS V14.01,2013-01-15 16:29:00,
2013-01-15 11:34:00,27.2,21.6,30.44,SE,133,8.0,11.0,79,0.00,,---,0.00,VWS V14.01,2013-01-15 16:34:00,
2013-01-15 11:39:00,27.3,21.7,30.44,SE,146,8.0,10.0,79,0.00,,---,0.00,VWS V14.01,2013-01-15 16:39:00,
2013-01-15 11:44:00,27.5,21.2,30.44,SSE,148,7.0,11.0,77,0.00,,---,0.00,VWS V14.01,2013-01-15 16:44:00,
2013-01-15 11:49:00,27.6,21.4,30.44,SSE,153,5.0,8.0,77,0.00,,---,0.00,VWS V14.01,2013-01-15 16:49:00,
2013-01-15 11:54:00,27.9,22.2,30.44,SE,145,7.0,7.0,79,0.00,,---,0.00,VWS V14.01,2013-01-15 16:54:00,
2013-01-15 11:58:00,28.1,21.8,30.43,SSE,159,1.0,8.0,77,0.00,,---,0.00,VWS V14.01,2013-01-15 16:58:00,
2013-01-15 12:03:00,28.3,21.7,30.43,SSE,163,5.0,8.0,76,0.00,,---,0.00,VWS V14.01,2013-01-15 17:03:00,
2013-01-15 12:08:00,28.4,22.1,30.42,South,178,4.0,8.0,77,0.00,,---,0.00,VWS V14.01,2013-01-15 17:08:00,
2013-01-15 12:13:00,28.6,22.0,30.42,South,180,4.0,8.0,76,0.00,,---,0.00,VWS V14.01,2013-01-15 17:13:00,
2013-01-15 12:18:00,28.9,22.3,30.41,SE,132,5.0,7.0,76,0.00,,---,0.00,VWS V14.01,2013-01-15 17:18:00,
2013-01-15 12:23:00,29.0,22.1,30.40,SE,139,4.0,6.0,75,0.00,,---,0.00,VWS V14.01,2013-01-15 17:23:00,
2013-01-15 12:28:00,29.2,22.3,30.40,South,180,2.0,10.0,75,0.00,,---,0.00,VWS V14.01,2013-01-15 17:28:00,
2013-01-15 12:33:00,29.3,22.1,30.39,ESE,121,4.0,6.0,74,0.00,,---,0.00,VWS V14.01,2013-01-15 17:33:00,
2013-01-15 12:38:00,29.3,22.1,30.38,SE,135,4.0,6.0,74,0.00,,---,0.00,VWS V14.01,2013-01-15 17:38:00,
2013-01-15 12:43:00,29.4,21.8,30.38,South,175,5.0,7.0,73,0.00,,---,0.00,VWS V14.01,2013-01-15 17:43:00,
2013-01-15 12:48:00,29.6,22.0,30.38,SSE,161,4.0,6.0,73,0.00,,---,0.00,VWS V14.01,2013-01-15 17:48:00,
2013-01-15 12:53:00,29.7,21.5,30.38,WSW,242,2.0,2.0,71,0.00,,---,0.00,VWS V14.01,2013-01-15 17:53:00,
2013-01-15 12:58:00,29.8,21.9,30.38,South,175,1.0,9.0,72,0.00,,---,0.00,VWS V14.01,2013-01-15 17:58:00,
2013-01-15 13:03:00,30.1,22.8,30.37,SSE,159,2.0,7.0,74,0.00,,---,0.00,VWS V14.01,2013-01-15 18:03:00,
2013-01-15 13:08:00,30.3,22.0,30.37,SSE,159,1.0,4.0,71,0.00,,---,0.00,VWS V14.01,2013-01-15 18:08:00,
2013-01-15 13:13:00,30.4,21.8,30.37,SW,224,2.0,5.0,70,0.00,,---,0.00,VWS V14.01,2013-01-15 18:13:00,
2013-01-15 13:18:00,30.4,21.8,30.38,WSW,254,2.0,5.0,70,0.00,,---,0.00,VWS V14.01,2013-01-15 18:18:00,
2013-01-15 13:23:00,30.3,21.4,30.38,WSW,253,4.0,5.0,69,0.00,,---,0.00,VWS V14.01,2013-01-15 18:23:00,
2013-01-15 13:29:00,30.1,21.2,30.38,WSW,252,1.0,1.0,69,0.00,,---,0.00,VWS V14.01,2013-01-15 18:29:00,
2013-01-15 13:34:00,30.0,21.4,30.38,SSW,213,4.0,6.0,70,0.00,,---,0.00,VWS V14.01,2013-01-15 18:34:00,
2013-01-15 13:39:00,29.9,21.3,30.38,SSW,199,3.0,6.0,70,0.00,,---,0.00,VWS V14.01,2013-01-15 18:39:00,
2013-01-15 13:44:00,29.8,21.6,30.38,SE,130,2.0,6.0,71,0.00,,---,0.00,VWS V14.01,2013-01-15 18:44:00,
2013-01-15 13:49:00,29.7,21.5,30.38,SSW,192,2.0,5.0,71,0.00,,---,0.00,VWS V14.01,2013-01-15 18:49:00,
2013-01-15 13:54:00,29.6,21.4,30.37,SSW,192,2.0,3.0,71,0.00,,---,0.00,VWS V14.01,2013-01-15 18:54:00,
2013-01-15 13:59:00,29.6,21.0,30.37,SW,227,2.0,6.0,70,0.00,,---,0.00,VWS V14.01,2013-01-15 18:59:00,
2013-01-15 14:04:00,29.6,21.4,30.37,SW,227,1.0,3.0,71,0.00,,---,0.00,VWS V14.01,2013-01-15 19:04:00,
2013-01-15 14:09:00,29.9,22.0,30.37,SW,236,6.0,7.0,72,0.00,,---,0.00,VWS V14.01,2013-01-15 19:09:00,
2013-01-15 14:14:00,30.5,22.6,30.37,SW,231,9.0,12.0,72,0.00,,---,0.00,VWS V14.01,2013-01-15 19:14:00,
2013-01-15 14:19:00,30.7,21.8,30.36,SW,236,8.0,13.0,69,0.00,,---,0.00,VWS V14.01,2013-01-15 19:19:00,
2013-01-15 14:24:00,30.8,21.1,30.35,SW,234,5.0,10.0,67,0.00,,---,0.00,VWS V14.01,2013-01-15 19:24:00,
2013-01-15 14:29:00,30.7,21.4,30.35,SSW,209,4.0,8.0,68,0.00,,---,0.00,VWS V14.01,2013-01-15 19:29:00,
2013-01-15 14:34:00,30.6,21.3,30.34,SSW,209,0.0,6.0,68,0.00,,---,0.00,VWS V14.01,2013-01-15 19:34:00,
2013-01-15 14:39:00,30.7,21.4,30.34,SSW,209,0.0,2.0,68,0.00,,---,0.00,VWS V14.01,2013-01-15 19:39:00,
2013-01-15 14:44:00,30.7,21.1,30.34,WSW,244,4.0,5.0,67,0.00,,---,0.00,VWS V14.01,2013-01-15 19:44:00,
2013-01-15 14:49:00,30.6,21.0,30.34,WSW,244,0.0,4.0,67,0.00,,---,0.00,VWS V14.01,2013-01-15 19:49:00,
2013-01-15 14:54:00,30.5,21.6,30.34,SW,226,6.0,7.0,69,0.00,,---,0.00,VWS V14.01,2013-01-15 19:54:00,
2013-01-15 14:59:00,30.4,21.5,30.34,SW,236,2.0,6.0,69,0.00,,---,0.00,VWS V14.01,2013-01-15 19:59:00,
2013-01-15 15:04:00,30.3,21.4,30.34,South,177,1.0,5.0,69,0.00,,---,0.00,VWS V14.01,2013-01-15 20:04:00,
2013-01-15 15:09:00,30.3,21.7,30.33,South,175,2.0,5.0,70,0.00,,---,0.00,VWS V14.01,2013-01-15 20:09:00,
2013-01-15 15:14:00,30.2,21.3,30.34,South,175,0.0,5.0,69,0.00,,---,0.00,VWS V14.01,2013-01-15 20:14:00,
2013-01-15 15:19:00,30.2,21.3,30.34,South,175,1.0,4.0,69,0.00,,---,0.00,VWS V14.01,2013-01-15 20:19:00,
2013-01-15 15:24:00,30.3,21.4,30.34,South,175,0.0,2.0,69,0.00,,---,0.00,VWS V14.01,2013-01-15 20:24:00,
2013-01-15 15:29:00,30.5,21.9,30.33,South,175,5.0,5.0,70,0.00,,---,0.00,VWS V14.01,2013-01-15 20:29:00,
2013-01-15 15:34:00,30.7,21.8,30.34,South,175,0.0,5.0,69,0.00,,---,0.00,VWS V14.01,2013-01-15 20:34:00,
2013-01-15 15:39:00,31.0,21.7,30.33,South,175,0.0,4.0,68,0.00,,---,0.00,VWS V14.01,2013-01-15 20:39:00,
2013-01-15 15:44:00,31.2,21.5,30.33,South,175,0.0,4.0,67,0.00,,---,0.00,VWS V14.01,2013-01-15 20:44:00,
2013-01-15 15:49:00,31.3,21.6,30.33,WSW,242,2.0,4.0,67,0.00,,---,0.00,VWS V14.01,2013-01-15 20:49:00,
2013-01-15 15:54:00,31.2,21.2,30.33,WSW,257,0.0,4.0,66,0.00,,---,0.00,VWS V14.01,2013-01-15 20:54:00,
2013-01-15 15:59:00,31.2,21.2,30.33,WSW,257,0.0,0.0,66,0.00,,---,0.00,VWS V14.01,2013-01-15 20:59:00,
2013-01-15 16:04:00,31.2,21.9,30.33,WNW,294,5.0,8.0,68,0.00,,---,0.00,VWS V14.01,2013-01-15 21:04:00,
2013-01-15 16:09:00,31.0,21.0,30.33,WNW,294,3.0,5.0,66,0.00,,---,0.00,VWS V14.01,2013-01-15 21:09:00,
2013-01-15 16:14:00,30.9,21.6,30.33,WNW,294,1.0,1.0,68,0.00,,---,0.00,VWS V14.01,2013-01-15 21:14:00,
2013-01-15 16:19:00,30.9,21.6,30.33,WNW,294,3.0,3.0,68,0.00,,---,0.00,VWS V14.01,2013-01-15 21:19:00,
2013-01-15 16:24:00,30.8,21.5,30.33,SSE,155,4.0,5.0,68,0.00,,---,0.00,VWS V14.01,2013-01-15 21:24:00,
2013-01-15 16:29:00,30.6,21.3,30.32,SE,144,2.0,5.0,68,0.00,,---,0.00,VWS V14.01,2013-01-15 21:29:00,
2013-01-15 16:34:00,30.5,21.2,30.31,SE,144,0.0,2.0,68,0.00,,---,0.00,VWS V14.01,2013-01-15 21:34:00,
2013-01-15 16:39:00,30.5,21.2,30.31,SE,144,0.0,2.0,68,0.00,,---,0.00,VWS V14.01,2013-01-15 21:39:00,
2013-01-15 16:44:00,30.4,21.1,30.31,SE,144,0.0,0.0,68,0.00,,---,0.00,VWS V14.01,2013-01-15 21:44:00,
2013-01-15 16:49:00,30.3,20.7,30.32,SE,144,0.0,2.0,67,0.00,,---,0.00,VWS V14.01,2013-01-15 21:49:00,
2013-01-15 16:54:00,30.3,20.7,30.32,SE,144,0.0,0.0,67,0.00,,---,0.00,VWS V14.01,2013-01-15 21:54:00,
2013-01-15 16:59:00,30.3,21.0,30.31,SE,144,0.0,0.0,68,0.00,,---,0.00,VWS V14.01,2013-01-15 21:59:00,
2013-01-15 17:04:00,30.2,20.9,30.32,SSW,213,2.0,3.0,68,0.00,,---,0.00,VWS V14.01,2013-01-15 22:04:00,
2013-01-15 17:09:00,30.1,21.2,30.31,SSW,213,2.0,3.0,69,0.00,,---,0.00,VWS V14.01,2013-01-15 22:09:00,
2013-01-15 17:14:00,30.0,21.4,30.31,SSW,213,1.0,3.0,70,0.00,,---,0.00,VWS V14.01,2013-01-15 22:14:00,
2013-01-15 17:19:00,29.9,21.7,30.31,SSW,213,1.0,3.0,71,0.00,,---,0.00,VWS V14.01,2013-01-15 22:19:00,
2013-01-15 17:24:00,29.8,21.6,30.31,SSW,213,0.0,0.0,71,0.00,,---,0.00,VWS V14.01,2013-01-15 22:24:00,
2013-01-15 17:29:00,29.7,21.8,30.31,SSW,213,1.0,1.0,72,0.00,,---,0.00,VWS V14.01,2013-01-15 22:29:00,
2013-01-15 17:34:00,29.6,21.4,30.31,SSW,213,0.0,0.0,71,0.00,,---,0.00,VWS V14.01,2013-01-15 22:34:00,
2013-01-15 17:39:00,29.5,21.6,30.31,SSW,213,0.0,0.0,72,0.00,,---,0.00,VWS V14.01,2013-01-15 22:39:00,
2013-01-15 17:44:00,29.4,21.5,30.31,SSW,213,0.0,0.0,72,0.00,,---,0.00,VWS V14.01,2013-01-15 22:44:00,
2013-01-15 17:49:00,29.3,21.4,30.32,SSW,213,0.0,0.0,72,0.00,,---,0.00,VWS V14.01,2013-01-15 22:49:00,
2013-01-15 17:54:00,29.2,21.3,30.32,SSW,213,0.0,0.0,72,0.00,,---,0.00,VWS V14.01,2013-01-15 22:54:00,
2013-01-15 17:59:00,29.1,21.2,30.32,SSW,213,0.0,0.0,72,0.00,,---,0.00,VWS V14.01,2013-01-15 22:59:00,
2013-01-15 18:04:00,29.0,21.4,30.32,SSW,213,0.0,0.0,73,0.00,,---,0.00,VWS V14.01,2013-01-15 23:04:00,
2013-01-15 18:09:00,28.8,21.2,30.31,SSW,213,0.0,0.0,73,0.00,,---,0.00,VWS V14.01,2013-01-15 23:09:00,
2013-01-15 18:14:00,28.8,21.6,30.32,SSW,213,0.0,0.0,74,0.00,,---,0.00,VWS V14.01,2013-01-15 23:14:00,
2013-01-15 18:19:00,28.6,21.4,30.32,SSW,213,1.0,1.0,74,0.00,,---,0.00,VWS V14.01,2013-01-15 23:19:00,
2013-01-15 18:24:00,28.5,21.0,30.32,SSW,213,0.0,0.0,73,0.00,,---,0.00,VWS V14.01,2013-01-15 23:24:00,
2013-01-15 18:29:00,28.4,20.9,30.32,SSW,213,1.0,2.0,73,0.00,,---,0.00,VWS V14.01,2013-01-15 23:29:00,
2013-01-15 18:34:00,28.2,21.0,30.31,SSW,213,3.0,3.0,74,0.00,,---,0.00,VWS V14.01,2013-01-15 23:34:00,
2013-01-15 18:39:00,28.1,20.9,30.32,SSW,213,1.0,2.0,74,0.00,,---,0.00,VWS V14.01,2013-01-15 23:39:00,
2013-01-15 18:44:00,27.9,21.3,30.31,SSW,213,1.0,1.0,76,0.00,,---,0.00,VWS V14.01,2013-01-15 23:44:00,
2013-01-15 18:49:00,27.7,21.4,30.32,SSW,213,1.0,2.0,77,0.00,,---,0.00,VWS V14.01,2013-01-15 23:49:00,
2013-01-15 18:54:00,27.5,21.5,30.31,SSW,213,1.0,2.0,78,0.00,,---,0.00,VWS V14.01,2013-01-15 23:54:00,
2013-01-15 18:59:00,27.4,21.1,30.31,SSW,213,0.0,0.0,77,0.00,,---,0.00,VWS V14.01,2013-01-15 23:59:00,
2013-01-15 19:04:00,27.2,21.3,30.31,SSW,213,1.0,1.0,78,0.00,,---,0.00,VWS V14.01,2013-01-16 00:04:00,
2013-01-15 19:09:00,27.0,21.1,30.31,SSW,213,1.0,2.0,78,0.00,,---,0.00,VWS V14.01,2013-01-16 00:09:00,
2013-01-15 19:14:00,26.9,21.0,30.30,SSW,213,2.0,2.0,78,0.00,,---,0.00,VWS V14.01,2013-01-16 00:14:00,
2013-01-15 19:19:00,26.8,21.2,30.31,SSW,213,1.0,1.0,79,0.00,,---,0.00,VWS V14.01,2013-01-16 00:19:00,
2013-01-15 19:24:00,26.7,21.1,30.30,SSW,213,1.0,1.0,79,0.00,,---,0.00,VWS V14.01,2013-01-16 00:24:00,
2013-01-15 19:29:00,26.5,20.9,30.30,SSW,213,1.0,2.0,79,0.00,,---,0.00,VWS V14.01,2013-01-16 00:29:00,
2013-01-15 19:34:00,26.4,20.8,30.29,SSW,213,1.0,1.0,79,0.00,,---,0.00,VWS V14.01,2013-01-16 00:34:00,
2013-01-15 19:39:00,26.2,20.9,30.29,SSW,213,0.0,1.0,80,0.00,,---,0.00,VWS V14.01,2013-01-16 00:39:00,
2013-01-15 19:44:00,26.1,21.1,30.29,SSW,213,0.0,0.0,81,0.00,,---,0.00,VWS V14.01,2013-01-16 00:44:00,
2013-01-15 19:49:00,26.0,21.0,30.29,SSW,213,0.0,0.0,81,0.00,,---,0.00,VWS V14.01,2013-01-16 00:49:00,
2013-01-15 19:54:00,25.9,20.6,30.28,SSW,213,1.0,1.0,80,0.00,,---,0.00,VWS V14.01,2013-01-16 00:54:00,
2013-01-15 19:59:00,25.7,20.4,30.28,SSW,213,1.0,1.0,80,0.00,,---,0.00,VWS V14.01,2013-01-16 00:59:00,
2013-01-15 20:04:00,25.6,20.6,30.28,SSW,213,1.0,1.0,81,0.00,,---,0.00,VWS V14.01,2013-01-16 01:04:00,
2013-01-15 20:09:00,25.5,20.5,30.27,SSW,213,0.0,0.0,81,0.00,,---,0.00,VWS V14.01,2013-01-16 01:09:00,
2013-01-15 20:14:00,25.4,20.4,30.27,SSW,213,0.0,0.0,81,0.00,,---,0.00,VWS V14.01,2013-01-16 01:14:00,
2013-01-15 20:19:00,25.3,20.3,30.26,SSW,213,0.0,1.0,81,0.00,,---,0.00,VWS V14.01,2013-01-16 01:19:00,
2013-01-15 20:24:00,25.2,20.2,30.26,SSW,213,0.0,0.0,81,0.00,,---,0.00,VWS V14.01,2013-01-16 01:24:00,
2013-01-15 20:29:00,25.1,20.1,30.26,SSW,213,0.0,0.0,81,0.00,,---,0.00,VWS V14.01,2013-01-16 01:29:00,
2013-01-15 20:34:00,25.0,20.0,30.26,SSW,213,0.0,0.0,81,0.00,,---,0.00,VWS V14.01,2013-01-16 01:34:00,
2013-01-15 20:39:00,24.9,19.9,30.26,SSW,213,0.0,0.0,81,0.00,,---,0.00,VWS V14.01,2013-01-16 01:39:00,
2013-01-15 20:44:00,24.8,20.1,30.25,SSW,213,0.0,0.0,82,0.00,,---,0.00,VWS V14.01,2013-01-16 01:44:00,
2013-01-15 20:49:00,24.7,20.0,30.25,SSW,213,0.0,0.0,82,0.00,,---,0.00,VWS V14.01,2013-01-16 01:49:00,
2013-01-15 20:54:00,24.6,19.9,30.25,SSW,213,0.0,0.0,82,0.00,,---,0.00,VWS V14.01,2013-01-16 01:54:00,
2013-01-15 20:59:00,24.5,19.8,30.24,SSW,213,0.0,0.0,82,0.00,,---,0.00,VWS V14.01,2013-01-16 01:59:00,
2013-01-15 21:04:00,24.1,19.7,30.24,SSW,213,0.0,0.0,83,0.00,,---,0.00,VWS V14.01,2013-01-16 02:04:00,
2013-01-15 21:09:00,23.9,19.5,30.24,SSW,213,0.0,0.0,83,0.00,,---,0.00,VWS V14.01,2013-01-16 02:09:00,
2013-01-15 21:14:00,23.8,19.7,30.24,SSW,213,0.0,0.0,84,0.00,,---,0.00,VWS V14.01,2013-01-16 02:14:00,
2013-01-15 21:19:00,23.6,19.5,30.23,SSW,213,0.0,0.0,84,0.00,,---,0.00,VWS V14.01,2013-01-16 02:19:00,
2013-01-15 21:24:00,23.4,19.3,30.23,SSW,213,0.0,0.0,84,0.00,,---,0.00,VWS V14.01,2013-01-16 02:24:00,
2013-01-15 21:29:00,23.2,19.4,30.23,SSW,213,0.0,0.0,85,0.00,,---,0.00,VWS V14.01,2013-01-16 02:29:00,
2013-01-15 21:34:00,23.0,19.5,30.23,SSW,213,0.0,0.0,86,0.00,,---,0.00,VWS V14.01,2013-01-16 02:34:00,
2013-01-15 21:40:00,22.9,19.4,30.23,SSW,213,0.0,0.0,86,0.00,,---,0.00,VWS V14.01,2013-01-16 02:40:00,
2013-01-15 21:45:00,22.7,19.1,30.23,SSW,213,0.0,0.0,86,0.00,,---,0.00,VWS V14.01,2013-01-16 02:45:00,
2013-01-15 21:50:00,22.6,19.0,30.23,SSW,213,0.0,0.0,86,0.00,,---,0.00,VWS V14.01,2013-01-16 02:50:00,
2013-01-15 21:55:00,22.5,19.0,30.23,SSW,213,0.0,0.0,86,0.00,,---,0.00,VWS V14.01,2013-01-16 02:55:00,
2013-01-15 22:00:00,22.5,19.0,30.22,SSW,213,0.0,0.0,86,0.00,,---,0.00,VWS V14.01,2013-01-16 03:00:00,
2013-01-15 22:05:00,22.3,18.8,30.22,SSW,213,1.0,2.0,86,0.00,,---,0.00,VWS V14.01,2013-01-16 03:05:00,
2013-01-15 22:10:00,22.2,18.7,30.22,SSW,213,1.0,2.0,86,0.00,,---,0.00,VWS V14.01,2013-01-16 03:10:00,
2013-01-15 22:15:00,22.0,18.7,30.22,SSW,213,1.0,2.0,87,0.00,,---,0.00,VWS V14.01,2013-01-16 03:15:00,
2013-01-15 22:20:00,22.0,18.7,30.22,SSW,213,2.0,2.0,87,0.00,,---,0.00,VWS V14.01,2013-01-16 03:20:00,
2013-01-15 22:25:00,21.8,18.5,30.22,SSW,213,0.0,3.0,87,0.00,,---,0.00,VWS V14.01,2013-01-16 03:25:00,
2013-01-15 22:30:00,21.6,18.3,30.22,SSW,213,1.0,1.0,87,0.00,,---,0.00,VWS V14.01,2013-01-16 03:30:00,
2013-01-15 22:35:00,21.5,18.2,30.21,SSW,213,0.0,1.0,87,0.00,,---,0.00,VWS V14.01,2013-01-16 03:35:00,
2013-01-15 22:40:00,21.4,18.4,30.21,SSW,213,0.0,1.0,88,0.00,,---,0.00,VWS V14.01,2013-01-16 03:40:00,
2013-01-15 22:45:00,21.3,18.3,30.21,SSW,213,1.0,2.0,88,0.00,,---,0.00,VWS V14.01,2013-01-16 03:45:00,
2013-01-15 22:50:00,21.2,18.2,30.20,SSW,213,1.0,3.0,88,0.00,,---,0.00,VWS V14.01,2013-01-16 03:50:00,
2013-01-15 22:55:00,21.2,18.2,30.20,SSW,213,1.0,2.0,88,0.00,,---,0.00,VWS V14.01,2013-01-16 03:55:00,
2013-01-15 23:00:00,21.2,18.2,30.20,SSW,213,1.0,2.0,88,0.00,,---,0.00,VWS V14.01,2013-01-16 04:00:00,
2013-01-15 23:05:00,21.2,18.2,30.20,SSW,213,0.0,1.0,88,0.00,,---,0.00,VWS V14.01,2013-01-16 04:05:00,
2013-01-15 23:10:00,21.2,18.2,30.20,SSW,213,1.0,2.0,88,0.00,,---,0.00,VWS V14.01,2013-01-16 04:10:00,
2013-01-15 23:15:00,21.2,18.2,30.20,SSW,213,2.0,2.0,88,0.00,,---,0.00,VWS V14.01,2013-01-16 04:15:00,
2013-01-15 23:20:00,21.2,18.2,30.20,SSW,213,2.0,3.0,88,0.00,,---,0.00,VWS V14.01,2013-01-16 04:20:00,
2013-01-15 23:25:00,21.2,18.2,30.19,SSW,213,0.0,2.0,88,0.00,,---,0.00,VWS V14.01,2013-01-16 04:25:00,
2013-01-15 23:30:00,21.2,18.2,30.19,SSW,213,0.0,0.0,88,0.00,,---,0.00,VWS V14.01,2013-01-16 04:30:00,
2013-01-15 23:35:00,21.2,18.2,30.18,SSW,213,0.0,0.0,88,0.00,,---,0.00,VWS V14.01,2013-01-16 04:35:00,
2013-01-15 23:40:00,21.2,17.9,30.18,SSW,213,0.0,0.0,87,0.00,,---,0.00,VWS V14.01,2013-01-16 04:40:00,
2013-01-15 23:45:00,21.1,17.8,30.18,SSW,213,0.0,0.0,87,0.00,,---,0.00,VWS V14.01,2013-01-16 04:45:00,
2013-01-15 23:50:00,21.1,17.8,30.18,SSW,213,0.0,0.0,87,0.00,,---,0.00,VWS V14.01,2013-01-16 04:50:00,
2013-01-15 23:55:00,21.1,17.8,30.18,SSW,213,0.0,0.0,87,0.00,,---,0.00,VWS V14.01,2013-01-16 04:55:00,